Impacts TAF Board
For situational awareness. Not to be used for flight planning purposes.
IDs:

KCLT - Charlotte/Douglas In, NC, US

Issued at 1943 UTC 20 Sep 2018
Updated at 1957 UTC 20 Sep 2018
Potential Impact None Slight Moderate High
Time<<21/08Z 21/09Z 21/10Z 21/11Z 21/12Z 21/13Z 21/14Z 21/15Z 21/16Z 21/17Z 21/18Z 21/19Z 21/20Z>>
Type PRVL PRVL PRVL PRVL PRVL PRVL PRVL PRVL PRVL PRVL PRVL PRVL PRVL
VIS >6 >6 4 4 4 >6 >6 >6 >6 >6 >6 >6 >6
CIG -- -- -- -- -- -- -- -- -- -- -- -- --
Cover FEW FEW SCT SCT SCT SCT SCT SCT SCT SCT SCT SCT SCT
FltCat VFR VFR MVFR MVFR MVFR VFR VFR VFR VFR VFR VFR VFR VFR
WX -- -- BR BR BR -- -- -- -- -- -- -- --
WDir 140 140 VRB VRB VRB 180 180 180 180 200 200 200 200
WSpd 3 3 2 2 2 3 3 3 3 6 6 6 6
WGst -- -- -- -- -- -- -- -- -- -- -- -- --
Raw TAF
KCLT 201943Z 2020/2124 17004KT P6SM SCT050
  FM210000 14003KT P6SM FEW210
  FM211000 VRB02KT 4SM BR FEW015 SCT040
  FM211300 18003KT P6SM SCT060
  FM211700 20006KT P6SM FEW030 SCT060


METAR Board
Radar Display
Forecast Discussion
For situational awareness. Not to be used for flight planning purposes.